sensor_id;sensor_type;location;lat;lon;timestamp;temperature;humidity
41533;DHT22;27262;-35.248;149.138;2023-07-02T00:00:10;16.40;61.70
41533;DHT22;27262;-35.248;149.138;2023-07-02T00:02:40;16.40;61.70
41533;DHT22;27262;-35.248;149.138;2023-07-02T00:05:11;16.40;61.70
41533;DHT22;27262;-35.248;149.138;2023-07-02T00:07:41;16.40;61.70
41533;DHT22;27262;-35.248;149.138;2023-07-02T00:10:11;16.40;61.70
41533;DHT22;27262;-35.248;149.138;2023-07-02T00:12:41;16.50;61.80
41533;DHT22;27262;-35.248;149.138;2023-07-02T00:15:13;16.50;61.70
41533;DHT22;27262;-35.248;149.138;2023-07-02T00:17:44;16.50;61.70
41533;DHT22;27262;-35.248;149.138;2023-07-02T00:20:14;16.50;61.70
41533;DHT22;27262;-35.248;149.138;2023-07-02T00:22:46;16.60;61.50
41533;DHT22;27262;-35.248;149.138;2023-07-02T00:25:16;16.60;61.60
41533;DHT22;27262;-35.248;149.138;2023-07-02T00:27:47;16.50;61.40
41533;DHT22;27262;-35.248;149.138;2023-07-02T00:30:17;16.50;61.50
41533;DHT22;27262;-35.248;149.138;2023-07-02T00:32:50;16.50;61.50
41533;DHT22;27262;-35.248;149.138;2023-07-02T00:35:20;16.50;61.50
41533;DHT22;27262;-35.248;149.138;2023-07-02T00:37:51;16.50;61.50
41533;DHT22;27262;-35.248;149.138;2023-07-02T00:40:21;16.50;61.50
41533;DHT22;27262;-35.248;149.138;2023-07-02T00:42:52;16.50;61.50
41533;DHT22;27262;-35.248;149.138;2023-07-02T00:45:23;16.40;61.40
41533;DHT22;27262;-35.248;149.138;2023-07-02T00:47:56;16.40;61.50
41533;DHT22;27262;-35.248;149.138;2023-07-02T00:50:27;16.40;61.80
41533;DHT22;27262;-35.248;149.138;2023-07-02T00:52:58;16.50;62.50
41533;DHT22;27262;-35.248;149.138;2023-07-02T00:55:28;16.50;62.50
41533;DHT22;27262;-35.248;149.138;2023-07-02T00:57:58;16.60;62.50
41533;DHT22;27262;-35.248;149.138;2023-07-02T01:00:29;16.70;62.50
41533;DHT22;27262;-35.248;149.138;2023-07-02T01:03:00;16.80;62.30
41533;DHT22;27262;-35.248;149.138;2023-07-02T01:05:30;16.90;62.20
41533;DHT22;27262;-35.248;149.138;2023-07-02T01:08:07;17.00;62.10
41533;DHT22;27262;-35.248;149.138;2023-07-02T01:10:38;17.10;61.90
41533;DHT22;27262;-35.248;149.138;2023-07-02T01:13:16;17.20;61.80
41533;DHT22;27262;-35.248;149.138;2023-07-02T01:15:49;17.30;61.60
41533;DHT22;27262;-35.248;149.138;2023-07-02T01:18:20;17.30;61.60
41533;DHT22;27262;-35.248;149.138;2023-07-02T01:20:51;17.40;61.50
41533;DHT22;27262;-35.248;149.138;2023-07-02T01:23:23;17.60;61.60
41533;DHT22;27262;-35.248;149.138;2023-07-02T01:25:53;17.70;61.40
41533;DHT22;27262;-35.248;149.138;2023-07-02T01:28:25;17.70;61.40
41533;DHT22;27262;-35.248;149.138;2023-07-02T01:30:55;17.80;61.80
41533;DHT22;27262;-35.248;149.138;2023-07-02T01:33:26;17.90;61.80
41533;DHT22;27262;-35.248;149.138;2023-07-02T01:35:56;18.00;61.80
41533;DHT22;27262;-35.248;149.138;2023-07-02T01:38:27;18.00;61.70
41533;DHT22;27262;-35.248;149.138;2023-07-02T01:40:57;18.10;61.90
41533;DHT22;27262;-35.248;149.138;2023-07-02T01:43:28;18.20;61.70
41533;DHT22;27262;-35.248;149.138;2023-07-02T01:45:58;18.20;62.10
41533;DHT22;27262;-35.248;149.138;2023-07-02T01:48:31;18.30;61.80
41533;DHT22;27262;-35.248;149.138;2023-07-02T01:51:01;18.40;61.70
41533;DHT22;27262;-35.248;149.138;2023-07-02T01:53:32;18.50;61.70
41533;DHT22;27262;-35.248;149.138;2023-07-02T01:56:02;18.50;61.70
41533;DHT22;27262;-35.248;149.138;2023-07-02T01:58:33;18.60;61.80
41533;DHT22;27262;-35.248;149.138;2023-07-02T02:01:03;18.60;61.20
41533;DHT22;27262;-35.248;149.138;2023-07-02T02:03:33;18.70;60.90
41533;DHT22;27262;-35.248;149.138;2023-07-02T02:06:04;18.70;60.90
41533;DHT22;27262;-35.248;149.138;2023-07-02T02:08:34;18.80;60.60
41533;DHT22;27262;-35.248;149.138;2023-07-02T02:11:05;18.80;60.20
41533;DHT22;27262;-35.248;149.138;2023-07-02T02:13:35;18.80;60.40
41533;DHT22;27262;-35.248;149.138;2023-07-02T02:16:05;18.90;60.40
41533;DHT22;27262;-35.248;149.138;2023-07-02T02:18:37;18.90;60.00
41533;DHT22;27262;-35.248;149.138;2023-07-02T02:21:08;18.90;60.20
41533;DHT22;27262;-35.248;149.138;2023-07-02T02:23:38;19.00;60.20
41533;DHT22;27262;-35.248;149.138;2023-07-02T02:26:08;19.00;59.90
41533;DHT22;27262;-35.248;149.138;2023-07-02T02:28:39;19.00;60.10
41533;DHT22;27262;-35.248;149.138;2023-07-02T02:31:09;19.10;60.10
41533;DHT22;27262;-35.248;149.138;2023-07-02T02:33:40;19.10;59.80
41533;DHT22;27262;-35.248;149.138;2023-07-02T02:36:10;19.20;60.00
41533;DHT22;27262;-35.248;149.138;2023-07-02T02:38:40;19.20;59.90
41533;DHT22;27262;-35.248;149.138;2023-07-02T02:41:11;19.20;59.70
41533;DHT22;27262;-35.248;149.138;2023-07-02T02:43:44;19.30;59.80
41533;DHT22;27262;-35.248;149.138;2023-07-02T02:46:20;19.30;59.60
41533;DHT22;27262;-35.248;149.138;2023-07-02T02:48:51;19.30;59.60
41533;DHT22;27262;-35.248;149.138;2023-07-02T02:51:21;19.40;59.60
41533;DHT22;27262;-35.248;149.138;2023-07-02T02:53:52;19.40;59.50
41533;DHT22;27262;-35.248;149.138;2023-07-02T02:56:22;19.40;59.30
41533;DHT22;27262;-35.248;149.138;2023-07-02T02:58:52;19.40;59.40
41533;DHT22;27262;-35.248;149.138;2023-07-02T03:01:23;19.40;59.30
41533;DHT22;27262;-35.248;149.138;2023-07-02T03:03:54;19.50;59.30
41533;DHT22;27262;-35.248;149.138;2023-07-02T03:06:25;19.50;59.30
41533;DHT22;27262;-35.248;149.138;2023-07-02T03:08:55;19.50;59.10
41533;DHT22;27262;-35.248;149.138;2023-07-02T03:11:26;19.50;59.10
41533;DHT22;27262;-35.248;149.138;2023-07-02T03:13:56;19.50;59.00
41533;DHT22;27262;-35.248;149.138;2023-07-02T03:16:26;19.50;59.00
41533;DHT22;27262;-35.248;149.138;2023-07-02T03:18:57;19.50;59.10
41533;DHT22;27262;-35.248;149.138;2023-07-02T03:21:29;19.60;59.10
41533;DHT22;27262;-35.248;149.138;2023-07-02T03:23:59;19.60;59.00
41533;DHT22;27262;-35.248;149.138;2023-07-02T03:26:30;19.60;59.00
41533;DHT22;27262;-35.248;149.138;2023-07-02T03:29:00;19.70;58.90
41533;DHT22;27262;-35.248;149.138;2023-07-02T03:31:30;19.70;58.90
41533;DHT22;27262;-35.248;149.138;2023-07-02T03:34:08;19.70;58.90
41533;DHT22;27262;-35.248;149.138;2023-07-02T03:36:38;19.70;58.80
41533;DHT22;27262;-35.248;149.138;2023-07-02T03:39:09;19.80;58.80
41533;DHT22;27262;-35.248;149.138;2023-07-02T03:41:39;19.70;58.70
41533;DHT22;27262;-35.248;149.138;2023-07-02T03:44:10;19.80;58.70
41533;DHT22;27262;-35.248;149.138;2023-07-02T03:46:40;19.90;58.70
41533;DHT22;27262;-35.248;149.138;2023-07-02T03:49:11;19.80;58.70
41533;DHT22;27262;-35.248;149.138;2023-07-02T03:51:42;19.90;58.90
41533;DHT22;27262;-35.248;149.138;2023-07-02T03:54:12;19.80;58.80
41533;DHT22;27262;-35.248;149.138;2023-07-02T03:56:42;19.90;58.90
41533;DHT22;27262;-35.248;149.138;2023-07-02T03:59:12;19.80;58.90
41533;DHT22;27262;-35.248;149.138;2023-07-02T04:01:43;19.80;58.90
41533;DHT22;27262;-35.248;149.138;2023-07-02T04:04:13;19.80;58.90
41533;DHT22;27262;-35.248;149.138;2023-07-02T04:06:44;19.80;58.90
41533;DHT22;27262;-35.248;149.138;2023-07-02T04:09:14;19.80;58.90
41533;DHT22;27262;-35.248;149.138;2023-07-02T04:11:44;19.80;58.90
41533;DHT22;27262;-35.248;149.138;2023-07-02T04:14:15;19.80;59.00
41533;DHT22;27262;-35.248;149.138;2023-07-02T04:16:45;19.80;58.20
41533;DHT22;27262;-35.248;149.138;2023-07-02T04:19:17;19.80;57.10
41533;DHT22;27262;-35.248;149.138;2023-07-02T04:21:47;19.70;55.90
41533;DHT22;27262;-35.248;149.138;2023-07-02T04:24:18;19.70;55.50
41533;DHT22;27262;-35.248;149.138;2023-07-02T04:26:48;19.70;56.30
41533;DHT22;27262;-35.248;149.138;2023-07-02T04:29:39;19.70;55.70
41533;DHT22;27262;-35.248;149.138;2023-07-02T04:32:09;19.60;55.40
41533;DHT22;27262;-35.248;149.138;2023-07-02T04:34:39;19.60;54.90
41533;DHT22;27262;-35.248;149.138;2023-07-02T04:37:10;19.60;54.60
41533;DHT22;27262;-35.248;149.138;2023-07-02T04:39:41;19.60;54.30
41533;DHT22;27262;-35.248;149.138;2023-07-02T04:42:12;19.50;53.90
41533;DHT22;27262;-35.248;149.138;2023-07-02T04:44:44;19.50;54.00
41533;DHT22;27262;-35.248;149.138;2023-07-02T04:47:14;19.50;54.10
41533;DHT22;27262;-35.248;149.138;2023-07-02T04:49:44;19.50;54.00
41533;DHT22;27262;-35.248;149.138;2023-07-02T04:52:15;19.50;53.80
41533;DHT22;27262;-35.248;149.138;2023-07-02T04:54:45;19.50;53.70
41533;DHT22;27262;-35.248;149.138;2023-07-02T04:57:15;19.50;53.40
41533;DHT22;27262;-35.248;149.138;2023-07-02T04:59:46;19.50;53.90
41533;DHT22;27262;-35.248;149.138;2023-07-02T05:02:17;19.40;53.30
41533;DHT22;27262;-35.248;149.138;2023-07-02T05:04:47;19.40;53.10
41533;DHT22;27262;-35.248;149.138;2023-07-02T05:07:18;19.40;53.40
41533;DHT22;27262;-35.248;149.138;2023-07-02T05:09:49;19.40;53.30
41533;DHT22;27262;-35.248;149.138;2023-07-02T05:12:22;19.40;53.80
41533;DHT22;27262;-35.248;149.138;2023-07-02T05:14:54;19.40;53.10
41533;DHT22;27262;-35.248;149.138;2023-07-02T05:17:24;19.40;53.20
41533;DHT22;27262;-35.248;149.138;2023-07-02T05:19:55;19.40;53.20
41533;DHT22;27262;-35.248;149.138;2023-07-02T05:22:25;19.40;52.80
41533;DHT22;27262;-35.248;149.138;2023-07-02T05:24:55;19.40;52.90
41533;DHT22;27262;-35.248;149.138;2023-07-02T05:27:26;19.40;52.80
41533;DHT22;27262;-35.248;149.138;2023-07-02T05:29:56;19.40;53.00
41533;DHT22;27262;-35.248;149.138;2023-07-02T05:32:27;19.40;53.00
41533;DHT22;27262;-35.248;149.138;2023-07-02T05:34:57;19.40;52.90
41533;DHT22;27262;-35.248;149.138;2023-07-02T05:37:27;19.30;53.00
41533;DHT22;27262;-35.248;149.138;2023-07-02T05:39:58;19.30;53.00
41533;DHT22;27262;-35.248;149.138;2023-07-02T05:42:28;19.40;54.50
41533;DHT22;27262;-35.248;149.138;2023-07-02T05:44:58;19.40;55.00
41533;DHT22;27262;-35.248;149.138;2023-07-02T05:47:28;19.50;55.90
41533;DHT22;27262;-35.248;149.138;2023-07-02T05:49:59;19.50;55.40
41533;DHT22;27262;-35.248;149.138;2023-07-02T05:52:29;19.50;56.10
41533;DHT22;27262;-35.248;149.138;2023-07-02T05:55:00;19.50;55.60
41533;DHT22;27262;-35.248;149.138;2023-07-02T05:57:30;19.60;55.70
41533;DHT22;27262;-35.248;149.138;2023-07-02T06:00:00;19.60;55.80
41533;DHT22;27262;-35.248;149.138;2023-07-02T06:02:31;19.60;55.80
41533;DHT22;27262;-35.248;149.138;2023-07-02T06:05:01;19.60;56.00
41533;DHT22;27262;-35.248;149.138;2023-07-02T06:07:32;19.60;56.00
41533;DHT22;27262;-35.248;149.138;2023-07-02T06:10:05;19.60;56.00
41533;DHT22;27262;-35.248;149.138;2023-07-02T06:12:35;19.60;56.10
41533;DHT22;27262;-35.248;149.138;2023-07-02T06:15:06;19.70;56.20
41533;DHT22;27262;-35.248;149.138;2023-07-02T06:17:37;19.70;56.30
41533;DHT22;27262;-35.248;149.138;2023-07-02T06:20:08;19.70;56.30
41533;DHT22;27262;-35.248;149.138;2023-07-02T06:22:38;19.70;56.30
41533;DHT22;27262;-35.248;149.138;2023-07-02T06:25:10;19.70;56.40
41533;DHT22;27262;-35.248;149.138;2023-07-02T06:27:40;19.70;56.40
41533;DHT22;27262;-35.248;149.138;2023-07-02T06:30:10;19.70;56.50
41533;DHT22;27262;-35.248;149.138;2023-07-02T06:32:41;19.70;56.40
41533;DHT22;27262;-35.248;149.138;2023-07-02T06:35:11;19.70;56.50
41533;DHT22;27262;-35.248;149.138;2023-07-02T06:37:42;19.70;56.50
41533;DHT22;27262;-35.248;149.138;2023-07-02T06:40:12;19.70;56.50
41533;DHT22;27262;-35.248;149.138;2023-07-02T06:42:43;19.70;56.60
41533;DHT22;27262;-35.248;149.138;2023-07-02T06:45:13;19.70;56.60
41533;DHT22;27262;-35.248;149.138;2023-07-02T06:47:43;19.70;56.70
41533;DHT22;27262;-35.248;149.138;2023-07-02T06:50:14;19.70;56.70
41533;DHT22;27262;-35.248;149.138;2023-07-02T06:52:44;19.70;56.70
41533;DHT22;27262;-35.248;149.138;2023-07-02T06:55:14;19.70;56.70
41533;DHT22;27262;-35.248;149.138;2023-07-02T06:57:45;19.70;56.70
41533;DHT22;27262;-35.248;149.138;2023-07-02T07:00:16;19.70;56.80
41533;DHT22;27262;-35.248;149.138;2023-07-02T07:02:47;19.70;56.70
41533;DHT22;27262;-35.248;149.138;2023-07-02T07:05:17;19.70;56.80
41533;DHT22;27262;-35.248;149.138;2023-07-02T07:07:47;19.70;56.80
41533;DHT22;27262;-35.248;149.138;2023-07-02T07:10:17;19.70;56.90
41533;DHT22;27262;-35.248;149.138;2023-07-02T07:12:50;19.70;56.90
41533;DHT22;27262;-35.248;149.138;2023-07-02T07:15:21;19.70;56.90
41533;DHT22;27262;-35.248;149.138;2023-07-02T07:17:51;19.70;56.90
41533;DHT22;27262;-35.248;149.138;2023-07-02T07:20:22;19.70;57.00
41533;DHT22;27262;-35.248;149.138;2023-07-02T07:22:52;19.70;57.10
41533;DHT22;27262;-35.248;149.138;2023-07-02T07:25:23;19.70;57.20
41533;DHT22;27262;-35.248;149.138;2023-07-02T07:27:54;19.70;57.30
41533;DHT22;27262;-35.248;149.138;2023-07-02T07:30:24;19.70;57.50
41533;DHT22;27262;-35.248;149.138;2023-07-02T07:32:55;19.70;57.50
41533;DHT22;27262;-35.248;149.138;2023-07-02T07:35:25;19.70;57.70
41533;DHT22;27262;-35.248;149.138;2023-07-02T07:37:56;19.70;57.70
41533;DHT22;27262;-35.248;149.138;2023-07-02T07:40:26;19.70;57.70
41533;DHT22;27262;-35.248;149.138;2023-07-02T07:42:56;19.70;57.80
41533;DHT22;27262;-35.248;149.138;2023-07-02T07:45:27;19.70;57.70
41533;DHT22;27262;-35.248;149.138;2023-07-02T07:47:57;19.80;57.80
41533;DHT22;27262;-35.248;149.138;2023-07-02T07:50:28;19.70;57.70
41533;DHT22;27262;-35.248;149.138;2023-07-02T07:52:59;19.80;57.80
41533;DHT22;27262;-35.248;149.138;2023-07-02T07:55:29;19.70;57.90
41533;DHT22;27262;-35.248;149.138;2023-07-02T07:57:59;19.70;57.70
41533;DHT22;27262;-35.248;149.138;2023-07-02T08:00:30;19.70;57.70
41533;DHT22;27262;-35.248;149.138;2023-07-02T08:03:00;19.70;57.70
41533;DHT22;27262;-35.248;149.138;2023-07-02T08:05:32;19.80;57.80
41533;DHT22;27262;-35.248;149.138;2023-07-02T08:08:03;19.80;57.80
41533;DHT22;27262;-35.248;149.138;2023-07-02T08:10:33;19.80;57.80
41533;DHT22;27262;-35.248;149.138;2023-07-02T08:13:03;19.80;57.70
41533;DHT22;27262;-35.248;149.138;2023-07-02T08:15:34;19.80;57.70
41533;DHT22;27262;-35.248;149.138;2023-07-02T08:18:04;19.80;57.60
41533;DHT22;27262;-35.248;149.138;2023-07-02T08:20:37;19.80;57.50
41533;DHT22;27262;-35.248;149.138;2023-07-02T08:23:07;19.80;57.40
41533;DHT22;27262;-35.248;149.138;2023-07-02T08:25:37;19.80;57.40
41533;DHT22;27262;-35.248;149.138;2023-07-02T08:28:07;19.80;57.30
41533;DHT22;27262;-35.248;149.138;2023-07-02T08:30:38;19.80;57.40
41533;DHT22;27262;-35.248;149.138;2023-07-02T08:33:09;19.80;57.40
41533;DHT22;27262;-35.248;149.138;2023-07-02T08:35:40;19.80;57.50
41533;DHT22;27262;-35.248;149.138;2023-07-02T08:38:11;19.80;57.50
41533;DHT22;27262;-35.248;149.138;2023-07-02T08:41:01;19.80;57.60
41533;DHT22;27262;-35.248;149.138;2023-07-02T08:43:33;19.80;57.80
41533;DHT22;27262;-35.248;149.138;2023-07-02T08:46:05;19.80;57.80
41533;DHT22;27262;-35.248;149.138;2023-07-02T08:48:37;19.80;57.70
41533;DHT22;27262;-35.248;149.138;2023-07-02T08:51:08;19.80;57.80
41533;DHT22;27262;-35.248;149.138;2023-07-02T08:53:39;19.80;57.80
41533;DHT22;27262;-35.248;149.138;2023-07-02T08:56:12;19.80;57.80
41533;DHT22;27262;-35.248;149.138;2023-07-02T08:58:44;19.80;57.70
41533;DHT22;27262;-35.248;149.138;2023-07-02T09:01:15;19.80;57.80
41533;DHT22;27262;-35.248;149.138;2023-07-02T09:03:46;19.80;57.80
41533;DHT22;27262;-35.248;149.138;2023-07-02T09:06:18;19.80;57.80
41533;DHT22;27262;-35.248;149.138;2023-07-02T09:08:50;19.70;57.70
41533;DHT22;27262;-35.248;149.138;2023-07-02T09:11:21;19.80;57.80
41533;DHT22;27262;-35.248;149.138;2023-07-02T09:13:53;19.80;57.80
41533;DHT22;27262;-35.248;149.138;2023-07-02T09:16:32;19.80;57.80
41533;DHT22;27262;-35.248;149.138;2023-07-02T09:19:08;19.80;57.80
41533;DHT22;27262;-35.248;149.138;2023-07-02T09:21:48;19.80;57.80
41533;DHT22;27262;-35.248;149.138;2023-07-02T09:24:25;19.70;57.80
41533;DHT22;27262;-35.248;149.138;2023-07-02T09:26:57;19.70;57.90
41533;DHT22;27262;-35.248;149.138;2023-07-02T09:29:32;19.70;57.90
41533;DHT22;27262;-35.248;149.138;2023-07-02T09:32:04;19.70;57.90
41533;DHT22;27262;-35.248;149.138;2023-07-02T09:34:39;19.70;57.90
41533;DHT22;27262;-35.248;149.138;2023-07-02T09:37:11;19.70;58.00
41533;DHT22;27262;-35.248;149.138;2023-07-02T09:39:42;19.70;58.00
41533;DHT22;27262;-35.248;149.138;2023-07-02T09:42:12;19.70;58.00
41533;DHT22;27262;-35.248;149.138;2023-07-02T09:44:43;19.70;58.10
41533;DHT22;27262;-35.248;149.138;2023-07-02T09:47:17;19.70;58.10
41533;DHT22;27262;-35.248;149.138;2023-07-02T09:49:54;19.70;58.20
41533;DHT22;27262;-35.248;149.138;2023-07-02T09:52:26;19.70;58.20
41533;DHT22;27262;-35.248;149.138;2023-07-02T09:55:00;19.70;58.20
41533;DHT22;27262;-35.248;149.138;2023-07-02T09:57:30;19.70;58.30
41533;DHT22;27262;-35.248;149.138;2023-07-02T10:00:03;19.70;58.30
41533;DHT22;27262;-35.248;149.138;2023-07-02T10:02:34;19.70;58.30
41533;DHT22;27262;-35.248;149.138;2023-07-02T10:05:05;19.70;58.30
41533;DHT22;27262;-35.248;149.138;2023-07-02T10:07:36;19.70;58.40
41533;DHT22;27262;-35.248;149.138;2023-07-02T10:10:07;19.70;58.30
41533;DHT22;27262;-35.248;149.138;2023-07-02T10:12:46;19.70;58.40
41533;DHT22;27262;-35.248;149.138;2023-07-02T10:15:28;19.70;58.40
41533;DHT22;27262;-35.248;149.138;2023-07-02T10:18:03;19.70;58.50
41533;DHT22;27262;-35.248;149.138;2023-07-02T10:20:34;19.70;58.50
41533;DHT22;27262;-35.248;149.138;2023-07-02T10:23:06;19.70;58.50
41533;DHT22;27262;-35.248;149.138;2023-07-02T10:25:38;19.70;58.50
41533;DHT22;27262;-35.248;149.138;2023-07-02T10:28:18;19.60;58.40
41533;DHT22;27262;-35.248;149.138;2023-07-02T10:30:49;19.60;58.30
41533;DHT22;27262;-35.248;149.138;2023-07-02T10:33:21;19.60;58.50
41533;DHT22;27262;-35.248;149.138;2023-07-02T10:35:53;19.60;58.50
41533;DHT22;27262;-35.248;149.138;2023-07-02T10:38:26;19.60;58.60
41533;DHT22;27262;-35.248;149.138;2023-07-02T10:40:58;19.60;58.80
41533;DHT22;27262;-35.248;149.138;2023-07-02T10:43:33;19.60;58.80
41533;DHT22;27262;-35.248;149.138;2023-07-02T10:46:03;19.60;58.80
41533;DHT22;27262;-35.248;149.138;2023-07-02T10:48:34;19.60;58.80
41533;DHT22;27262;-35.248;149.138;2023-07-02T10:51:13;19.50;58.50
41533;DHT22;27262;-35.248;149.138;2023-07-02T10:53:44;19.50;58.70
41533;DHT22;27262;-35.248;149.138;2023-07-02T10:56:17;19.50;58.70
41533;DHT22;27262;-35.248;149.138;2023-07-02T10:58:48;19.50;58.70
41533;DHT22;27262;-35.248;149.138;2023-07-02T11:01:28;19.50;58.80
41533;DHT22;27262;-35.248;149.138;2023-07-02T11:04:01;19.50;58.70
41533;DHT22;27262;-35.248;149.138;2023-07-02T11:06:32;19.50;58.70
41533;DHT22;27262;-35.248;149.138;2023-07-02T11:09:03;19.50;58.70
41533;DHT22;27262;-35.248;149.138;2023-07-02T11:11:33;19.50;58.70
41533;DHT22;27262;-35.248;149.138;2023-07-02T11:14:04;19.50;58.90
41533;DHT22;27262;-35.248;149.138;2023-07-02T11:16:35;19.50;58.70
41533;DHT22;27262;-35.248;149.138;2023-07-02T11:19:09;19.40;58.70
41533;DHT22;27262;-35.248;149.138;2023-07-02T11:21:54;19.50;58.90
41533;DHT22;27262;-35.248;149.138;2023-07-02T11:24:37;19.40;58.60
41533;DHT22;27262;-35.248;149.138;2023-07-02T11:27:08;19.40;58.80
41533;DHT22;27262;-35.248;149.138;2023-07-02T11:29:38;19.40;58.90
41533;DHT22;27262;-35.248;149.138;2023-07-02T11:32:10;19.40;58.70
41533;DHT22;27262;-35.248;149.138;2023-07-02T11:34:41;19.40;58.90
41533;DHT22;27262;-35.248;149.138;2023-07-02T11:37:11;19.40;58.70
41533;DHT22;27262;-35.248;149.138;2023-07-02T11:39:43;19.40;58.70
41533;DHT22;27262;-35.248;149.138;2023-07-02T11:42:14;19.40;58.90
41533;DHT22;27262;-35.248;149.138;2023-07-02T11:44:44;19.30;58.70
41533;DHT22;27262;-35.248;149.138;2023-07-02T11:47:14;19.30;58.70
41533;DHT22;27262;-35.248;149.138;2023-07-02T11:49:45;19.40;59.00
41533;DHT22;27262;-35.248;149.138;2023-07-02T11:52:15;19.40;58.80
41533;DHT22;27262;-35.248;149.138;2023-07-02T11:54:46;19.30;58.70
41533;DHT22;27262;-35.248;149.138;2023-07-02T11:57:16;19.30;59.30
41533;DHT22;27262;-35.248;149.138;2023-07-02T11:59:47;19.30;58.70
41533;DHT22;27262;-35.248;149.138;2023-07-02T12:02:19;19.30;58.80
41533;DHT22;27262;-35.248;149.138;2023-07-02T12:04:49;19.30;58.70
41533;DHT22;27262;-35.248;149.138;2023-07-02T12:07:19;19.20;58.60
41533;DHT22;27262;-35.248;149.138;2023-07-02T12:09:50;19.20;58.60
41533;DHT22;27262;-35.248;149.138;2023-07-02T12:12:20;19.20;58.60
41533;DHT22;27262;-35.248;149.138;2023-07-02T12:14:50;19.20;58.60
41533;DHT22;27262;-35.248;149.138;2023-07-02T12:17:21;19.20;58.70
41533;DHT22;27262;-35.248;149.138;2023-07-02T12:19:51;19.20;58.80
41533;DHT22;27262;-35.248;149.138;2023-07-02T12:22:22;19.10;58.80
41533;DHT22;27262;-35.248;149.138;2023-07-02T12:24:52;19.10;58.80
41533;DHT22;27262;-35.248;149.138;2023-07-02T12:27:27;19.10;58.90
41533;DHT22;27262;-35.248;149.138;2023-07-02T12:29:57;19.00;58.80
41533;DHT22;27262;-35.248;149.138;2023-07-02T12:32:28;19.10;58.80
41533;DHT22;27262;-35.248;149.138;2023-07-02T12:34:59;19.10;58.80
41533;DHT22;27262;-35.248;149.138;2023-07-02T12:37:32;19.00;58.80
41533;DHT22;27262;-35.248;149.138;2023-07-02T12:40:02;19.00;58.80
41533;DHT22;27262;-35.248;149.138;2023-07-02T12:42:33;19.00;58.80
41533;DHT22;27262;-35.248;149.138;2023-07-02T12:45:05;19.00;58.80
41533;DHT22;27262;-35.248;149.138;2023-07-02T12:47:35;18.90;58.70
41533;DHT22;27262;-35.248;149.138;2023-07-02T12:50:09;18.90;58.80
41533;DHT22;27262;-35.248;149.138;2023-07-02T12:52:39;18.90;58.70
41533;DHT22;27262;-35.248;149.138;2023-07-02T12:55:10;18.90;58.70
41533;DHT22;27262;-35.248;149.138;2023-07-02T12:57:40;18.90;58.70
41533;DHT22;27262;-35.248;149.138;2023-07-02T13:00:16;18.80;58.70
41533;DHT22;27262;-35.248;149.138;2023-07-02T13:02:48;18.80;58.70
41533;DHT22;27262;-35.248;149.138;2023-07-02T13:05:32;18.80;58.70
41533;DHT22;27262;-35.248;149.138;2023-07-02T13:08:03;18.80;58.70
41533;DHT22;27262;-35.248;149.138;2023-07-02T13:10:34;18.80;58.80
41533;DHT22;27262;-35.248;149.138;2023-07-02T13:13:07;18.70;58.70
41533;DHT22;27262;-35.248;149.138;2023-07-02T13:15:49;18.70;58.70
41533;DHT22;27262;-35.248;149.138;2023-07-02T13:18:20;18.70;58.80
41533;DHT22;27262;-35.248;149.138;2023-07-02T13:20:50;18.60;58.80
41533;DHT22;27262;-35.248;149.138;2023-07-02T13:23:21;18.60;58.80
41533;DHT22;27262;-35.248;149.138;2023-07-02T13:25:51;18.60;58.80
41533;DHT22;27262;-35.248;149.138;2023-07-02T13:28:22;18.60;58.90
41533;DHT22;27262;-35.248;149.138;2023-07-02T13:30:54;18.60;58.90
41533;DHT22;27262;-35.248;149.138;2023-07-02T13:33:24;18.50;58.90
41533;DHT22;27262;-35.248;149.138;2023-07-02T13:35:55;18.50;58.90
41533;DHT22;27262;-35.248;149.138;2023-07-02T13:38:25;18.50;58.90
41533;DHT22;27262;-35.248;149.138;2023-07-02T13:40:59;18.50;58.90
41533;DHT22;27262;-35.248;149.138;2023-07-02T13:43:29;18.40;59.00
41533;DHT22;27262;-35.248;149.138;2023-07-02T13:46:00;18.40;59.00
41533;DHT22;27262;-35.248;149.138;2023-07-02T13:48:31;18.40;59.10
41533;DHT22;27262;-35.248;149.138;2023-07-02T13:51:02;18.40;59.10
41533;DHT22;27262;-35.248;149.138;2023-07-02T13:53:35;18.30;59.10
41533;DHT22;27262;-35.248;149.138;2023-07-02T13:56:06;18.30;59.10
41533;DHT22;27262;-35.248;149.138;2023-07-02T13:58:58;18.30;59.20
41533;DHT22;27262;-35.248;149.138;2023-07-02T14:01:29;18.30;59.10
41533;DHT22;27262;-35.248;149.138;2023-07-02T14:04:01;18.20;59.20
41533;DHT22;27262;-35.248;149.138;2023-07-02T14:06:31;18.20;59.20
41533;DHT22;27262;-35.248;149.138;2023-07-02T14:09:03;18.20;59.20
41533;DHT22;27262;-35.248;149.138;2023-07-02T14:11:35;18.10;59.20
41533;DHT22;27262;-35.248;149.138;2023-07-02T14:14:06;18.10;59.20
41533;DHT22;27262;-35.248;149.138;2023-07-02T14:16:36;18.10;59.20
41533;DHT22;27262;-35.248;149.138;2023-07-02T14:19:06;18.10;59.20
41533;DHT22;27262;-35.248;149.138;2023-07-02T14:21:37;18.10;59.10
41533;DHT22;27262;-35.248;149.138;2023-07-02T14:24:07;18.00;59.10
41533;DHT22;27262;-35.248;149.138;2023-07-02T14:26:38;18.00;59.00
41533;DHT22;27262;-35.248;149.138;2023-07-02T14:29:10;18.00;59.10
41533;DHT22;27262;-35.248;149.138;2023-07-02T14:31:40;18.00;59.00
41533;DHT22;27262;-35.248;149.138;2023-07-02T14:34:10;18.00;59.00
41533;DHT22;27262;-35.248;149.138;2023-07-02T14:36:41;17.90;58.90
41533;DHT22;27262;-35.248;149.138;2023-07-02T14:39:11;17.90;58.90
41533;DHT22;27262;-35.248;149.138;2023-07-02T14:41:41;17.90;59.00
41533;DHT22;27262;-35.248;149.138;2023-07-02T14:44:12;17.90;58.90
41533;DHT22;27262;-35.248;149.138;2023-07-02T14:46:42;17.80;58.80
41533;DHT22;27262;-35.248;149.138;2023-07-02T14:49:14;17.80;58.70
41533;DHT22;27262;-35.248;149.138;2023-07-02T14:51:44;17.80;58.80
41533;DHT22;27262;-35.248;149.138;2023-07-02T14:54:14;17.70;58.80
41533;DHT22;27262;-35.248;149.138;2023-07-02T14:56:45;17.70;58.70
41533;DHT22;27262;-35.248;149.138;2023-07-02T14:59:15;17.70;58.70
41533;DHT22;27262;-35.248;149.138;2023-07-02T15:01:45;17.70;58.70
41533;DHT22;27262;-35.248;149.138;2023-07-02T15:04:15;17.70;58.70
41533;DHT22;27262;-35.248;149.138;2023-07-02T15:06:46;17.60;58.60
41533;DHT22;27262;-35.248;149.138;2023-07-02T15:09:16;17.60;58.60
41533;DHT22;27262;-35.248;149.138;2023-07-02T15:11:48;17.60;58.70